sensor_id;sensor_type;location;lat;lon;timestamp;pressure;altitude;pressure_sealevel;temperature;humidity
16451;BME280;12243;42.708;23.310;2023-04-19T00:00:02;94627.63;;;11.06;93.41
16451;BME280;12243;42.708;23.310;2023-04-19T00:02:31;94626.06;;;11.23;92.30
16451;BME280;12243;42.708;23.310;2023-04-19T00:04:58;94624.31;;;11.04;92.82
16451;BME280;12243;42.708;23.310;2023-04-19T00:07:25;94620.44;;;11.17;92.65
16451;BME280;12243;42.708;23.310;2023-04-19T00:09:53;94622.13;;;11.09;92.40
16451;BME280;12243;42.708;23.310;2023-04-19T00:12:20;94620.22;;;11.01;93.89
16451;BME280;12243;42.708;23.310;2023-04-19T00:14:47;94616.22;;;11.07;93.35
16451;BME280;12243;42.708;23.310;2023-04-19T00:17:15;94614.47;;;10.97;93.28
16451;BME280;12243;42.708;23.310;2023-04-19T00:19:42;94616.94;;;10.89;94.74
16451;BME280;12243;42.708;23.310;2023-04-19T00:22:09;94615.16;;;10.80;94.55
16451;BME280;12243;42.708;23.310;2023-04-19T00:24:36;94613.13;;;10.84;95.24
16451;BME280;12243;42.708;23.310;2023-04-19T00:27:03;94613.53;;;10.79;95.51
16451;BME280;12243;42.708;23.310;2023-04-19T00:29:36;94609.31;;;10.78;95.42
16451;BME280;12243;42.708;23.310;2023-04-19T00:32:04;94606.53;;;10.80;94.67
16451;BME280;12243;42.708;23.310;2023-04-19T00:34:32;94609.84;;;10.72;95.34
16451;BME280;12243;42.708;23.310;2023-04-19T00:36:59;94604.38;;;10.75;95.64
16451;BME280;12243;42.708;23.310;2023-04-19T00:39:29;94606.56;;;10.70;95.96
16451;BME280;12243;42.708;23.310;2023-04-19T00:41:56;94611.75;;;10.70;95.31
16451;BME280;12243;42.708;23.310;2023-04-19T00:44:23;94607.94;;;10.74;95.64
16451;BME280;12243;42.708;23.310;2023-04-19T00:46:53;94605.59;;;10.71;95.37
16451;BME280;12243;42.708;23.310;2023-04-19T00:49:22;94606.97;;;10.75;95.30
16451;BME280;12243;42.708;23.310;2023-04-19T00:51:50;94598.91;;;10.59;96.77
16451;BME280;12243;42.708;23.310;2023-04-19T00:54:18;94599.16;;;10.65;96.94
16451;BME280;12243;42.708;23.310;2023-04-19T00:56:47;94591.78;;;10.61;96.59
16451;BME280;12243;42.708;23.310;2023-04-19T00:59:16;94597.25;;;10.58;96.97
16451;BME280;12243;42.708;23.310;2023-04-19T01:01:43;94597.25;;;10.58;97.73
16451;BME280;12243;42.708;23.310;2023-04-19T01:04:11;94601.78;;;10.56;97.81
16451;BME280;12243;42.708;23.310;2023-04-19T01:06:39;94591.50;;;10.64;97.87
16451;BME280;12243;42.708;23.310;2023-04-19T01:09:11;94595.47;;;10.58;98.28
16451;BME280;12243;42.708;23.310;2023-04-19T01:11:40;94590.41;;;10.57;98.21
16451;BME280;12243;42.708;23.310;2023-04-19T01:14:07;94585.22;;;10.57;98.52
16451;BME280;12243;42.708;23.310;2023-04-19T01:16:34;94578.50;;;10.54;98.45
16451;BME280;12243;42.708;23.310;2023-04-19T01:19:01;94583.84;;;10.43;99.47
16451;BME280;12243;42.708;23.310;2023-04-19T01:21:28;94582.06;;;10.34;100.00
16451;BME280;12243;42.708;23.310;2023-04-19T01:23:58;94589.59;;;10.27;100.00
16451;BME280;12243;42.708;23.310;2023-04-19T01:26:25;94590.13;;;10.31;100.00
16451;BME280;12243;42.708;23.310;2023-04-19T01:28:53;94589.75;;;10.25;100.00
16451;BME280;12243;42.708;23.310;2023-04-19T01:31:20;94591.22;;;10.28;100.00
16451;BME280;12243;42.708;23.310;2023-04-19T01:33:46;94586.28;;;10.15;100.00
16451;BME280;12243;42.708;23.310;2023-04-19T01:36:13;94589.69;;;10.16;100.00
16451;BME280;12243;42.708;23.310;2023-04-19T01:38:40;94586.81;;;10.19;100.00
16451;BME280;12243;42.708;23.310;2023-04-19T01:41:09;94591.31;;;10.17;100.00
16451;BME280;12243;42.708;23.310;2023-04-19T01:43:37;94588.88;;;10.15;100.00
16451;BME280;12243;42.708;23.310;2023-04-19T01:46:04;94587.63;;;10.10;100.00
16451;BME280;12243;42.708;23.310;2023-04-19T01:48:31;94586.53;;;10.12;100.00
16451;BME280;12243;42.708;23.310;2023-04-19T01:50:58;94580.91;;;9.97;100.00
16451;BME280;12243;42.708;23.310;2023-04-19T01:53:25;94581.47;;;9.91;100.00
16451;BME280;12243;42.708;23.310;2023-04-19T01:55:52;94583.22;;;10.00;100.00
16451;BME280;12243;42.708;23.310;2023-04-19T01:58:20;94582.97;;;9.94;100.00
16451;BME280;12243;42.708;23.310;2023-04-19T02:00:47;94578.31;;;9.97;100.00
16451;BME280;12243;42.708;23.310;2023-04-19T02:03:14;94573.09;;;9.88;100.00
16451;BME280;12243;42.708;23.310;2023-04-19T02:05:41;94577.31;;;9.79;100.00
16451;BME280;12243;42.708;23.310;2023-04-19T02:08:08;94575.28;;;9.73;100.00
16451;BME280;12243;42.708;23.310;2023-04-19T02:10:35;94580.63;;;9.81;100.00
16451;BME280;12243;42.708;23.310;2023-04-19T02:13:02;94576.91;;;9.74;100.00
16451;BME280;12243;42.708;23.310;2023-04-19T02:15:30;94579.38;;;9.66;100.00
16451;BME280;12243;42.708;23.310;2023-04-19T02:17:57;94588.63;;;9.59;100.00
16451;BME280;12243;42.708;23.310;2023-04-19T02:20:25;94576.84;;;9.54;100.00
16451;BME280;12243;42.708;23.310;2023-04-19T02:22:51;94582.88;;;9.55;100.00
16451;BME280;12243;42.708;23.310;2023-04-19T02:25:19;94578.50;;;9.56;100.00
16451;BME280;12243;42.708;23.310;2023-04-19T02:27:46;94573.59;;;9.72;100.00
16451;BME280;12243;42.708;23.310;2023-04-19T02:30:13;94571.16;;;9.70;100.00
16451;BME280;12243;42.708;23.310;2023-04-19T02:32:41;94566.63;;;9.63;100.00
16451;BME280;12243;42.708;23.310;2023-04-19T02:35:11;94567.47;;;9.73;100.00
16451;BME280;12243;42.708;23.310;2023-04-19T02:37:38;94572.50;;;9.65;100.00
16451;BME280;12243;42.708;23.310;2023-04-19T02:40:08;94573.50;;;9.73;100.00
16451;BME280;12243;42.708;23.310;2023-04-19T02:42:34;94570.34;;;9.70;100.00
16451;BME280;12243;42.708;23.310;2023-04-19T02:45:02;94578.53;;;9.75;100.00
16451;BME280;12243;42.708;23.310;2023-04-19T02:47:29;94574.72;;;9.69;100.00
16451;BME280;12243;42.708;23.310;2023-04-19T02:49:58;94565.22;;;9.59;100.00
16451;BME280;12243;42.708;23.310;2023-04-19T02:52:25;94563.06;;;9.64;100.00
16451;BME280;12243;42.708;23.310;2023-04-19T02:54:52;94571.66;;;9.54;100.00
16451;BME280;12243;42.708;23.310;2023-04-19T02:57:20;94574.09;;;9.46;100.00
16451;BME280;12243;42.708;23.310;2023-04-19T02:59:47;94574.69;;;9.60;100.00
16451;BME280;12243;42.708;23.310;2023-04-19T03:02:15;94571.91;;;9.51;100.00
16451;BME280;12243;42.708;23.310;2023-04-19T03:04:41;94566.84;;;9.50;100.00
16451;BME280;12243;42.708;23.310;2023-04-19T03:07:10;94564.28;;;9.60;100.00
16451;BME280;12243;42.708;23.310;2023-04-19T03:09:38;94567.28;;;9.55;100.00
16451;BME280;12243;42.708;23.310;2023-04-19T03:12:06;94563.44;;;9.49;100.00
16451;BME280;12243;42.708;23.310;2023-04-19T03:14:33;94572.47;;;9.45;100.00
16451;BME280;12243;42.708;23.310;2023-04-19T03:17:01;94563.56;;;9.38;100.00
16451;BME280;12243;42.708;23.310;2023-04-19T03:19:28;94569.59;;;9.48;100.00
16451;BME280;12243;42.708;23.310;2023-04-19T03:21:55;94564.81;;;9.53;100.00
16451;BME280;12243;42.708;23.310;2023-04-19T03:24:28;94567.00;;;9.58;100.00
16451;BME280;12243;42.708;23.310;2023-04-19T03:26:56;94565.06;;;9.50;100.00
16451;BME280;12243;42.708;23.310;2023-04-19T03:29:27;94565.47;;;9.46;100.00
16451;BME280;12243;42.708;23.310;2023-04-19T03:32:06;94566.81;;;9.40;100.00
16451;BME280;12243;42.708;23.310;2023-04-19T03:34:33;94570.50;;;9.38;100.00
16451;BME280;12243;42.708;23.310;2023-04-19T03:37:00;94575.69;;;9.38;100.00
16451;BME280;12243;42.708;23.310;2023-04-19T03:39:30;94568.81;;;9.27;100.00
16451;BME280;12243;42.708;23.310;2023-04-19T03:42:02;94572.13;;;9.29;100.00
16451;BME280;12243;42.708;23.310;2023-04-19T03:44:47;94573.09;;;9.28;100.00
16451;BME280;12243;42.708;23.310;2023-04-19T03:47:16;94569.06;;;9.24;100.00
16451;BME280;12243;42.708;23.310;2023-04-19T03:49:47;94573.09;;;9.38;100.00
16451;BME280;12243;42.708;23.310;2023-04-19T03:52:14;94568.03;;;9.36;100.00
16451;BME280;12243;42.708;23.310;2023-04-19T03:54:42;94569.53;;;9.29;100.00
16451;BME280;12243;42.708;23.310;2023-04-19T03:57:21;94569.00;;;9.35;100.00
16451;BME280;12243;42.708;23.310;2023-04-19T03:59:49;94569.69;;;9.37;100.00
16451;BME280;12243;42.708;23.310;2023-04-19T04:02:17;94569.38;;;9.30;100.00
16451;BME280;12243;42.708;23.310;2023-04-19T04:04:44;94567.75;;;9.29;100.00
16451;BME280;12243;42.708;23.310;2023-04-19T04:07:12;94566.94;;;9.29;100.00
16451;BME280;12243;42.708;23.310;2023-04-19T04:09:39;94566.97;;;9.39;100.00
16451;BME280;12243;42.708;23.310;2023-04-19T04:12:07;94573.94;;;9.38;100.00
16451;BME280;12243;42.708;23.310;2023-04-19T04:14:34;94575.97;;;9.35;100.00
16451;BME280;12243;42.708;23.310;2023-04-19T04:17:04;94574.56;;;9.21;100.00
16451;BME280;12243;42.708;23.310;2023-04-19T04:19:31;94577.59;;;9.26;100.00
16451;BME280;12243;42.708;23.310;2023-04-19T04:21:58;94578.97;;;9.30;100.00
16451;BME280;12243;42.708;23.310;2023-04-19T04:24:25;94577.97;;;9.21;100.00
16451;BME280;12243;42.708;23.310;2023-04-19T04:27:20;94581.66;;;9.19;100.00
16451;BME280;12243;42.708;23.310;2023-04-19T04:29:50;94580.03;;;9.18;100.00
16451;BME280;12243;42.708;23.310;2023-04-19T04:32:17;94589.53;;;9.07;100.00
16451;BME280;12243;42.708;23.310;2023-04-19T04:34:49;94592.13;;;9.07;100.00
16451;BME280;12243;42.708;23.310;2023-04-19T04:37:25;94585.31;;;9.06;100.00
16451;BME280;12243;42.708;23.310;2023-04-19T04:39:52;94579.16;;;9.07;100.00
16451;BME280;12243;42.708;23.310;2023-04-19T04:42:20;94587.06;;;9.06;100.00
16451;BME280;12243;42.708;23.310;2023-04-19T04:44:47;94587.78;;;8.87;100.00
16451;BME280;12243;42.708;23.310;2023-04-19T04:47:16;94584.06;;;8.80;100.00
16451;BME280;12243;42.708;23.310;2023-04-19T04:49:51;94593.50;;;8.81;100.00
16451;BME280;12243;42.708;23.310;2023-04-19T04:52:18;94585.91;;;8.89;100.00
16451;BME280;12243;42.708;23.310;2023-04-19T04:54:55;94584.53;;;8.95;100.00
16451;BME280;12243;42.708;23.310;2023-04-19T04:57:29;94588.66;;;8.97;100.00
16451;BME280;12243;42.708;23.310;2023-04-19T04:59:57;94588.16;;;9.03;100.00
16451;BME280;12243;42.708;23.310;2023-04-19T05:02:29;94584.59;;;9.04;100.00
16451;BME280;12243;42.708;23.310;2023-04-19T05:04:56;94596.22;;;9.00;100.00
16451;BME280;12243;42.708;23.310;2023-04-19T05:07:25;94598.56;;;9.03;100.00
16451;BME280;12243;42.708;23.310;2023-04-19T05:09:52;94595.00;;;9.04;100.00
16451;BME280;12243;42.708;23.310;2023-04-19T05:12:23;94598.00;;;9.10;100.00
16451;BME280;12243;42.708;23.310;2023-04-19T05:14:52;94602.34;;;8.99;100.00
16451;BME280;12243;42.708;23.310;2023-04-19T05:17:19;94597.75;;;9.13;100.00
16451;BME280;12243;42.708;23.310;2023-04-19T05:19:47;94606.38;;;9.13;100.00
16451;BME280;12243;42.708;23.310;2023-04-19T05:22:13;94602.28;;;9.20;100.00
16451;BME280;12243;42.708;23.310;2023-04-19T05:24:41;94602.44;;;9.19;100.00
16451;BME280;12243;42.708;23.310;2023-04-19T05:27:08;94600.25;;;9.24;100.00
16451;BME280;12243;42.708;23.310;2023-04-19T05:29:35;94605.94;;;9.39;100.00
16451;BME280;12243;42.708;23.310;2023-04-19T05:32:05;94605.41;;;9.45;100.00
16451;BME280;12243;42.708;23.310;2023-04-19T05:34:37;94601.47;;;9.50;100.00
16451;BME280;12243;42.708;23.310;2023-04-19T05:37:04;94605.03;;;9.49;100.00
16451;BME280;12243;42.708;23.310;2023-04-19T05:39:32;94604.47;;;9.46;100.00
16451;BME280;12243;42.708;23.310;2023-04-19T05:41:58;94601.31;;;9.42;100.00
16451;BME280;12243;42.708;23.310;2023-04-19T05:44:26;94606.66;;;9.50;100.00
16451;BME280;12243;42.708;23.310;2023-04-19T05:46:53;94600.16;;;9.66;100.00
16451;BME280;12243;42.708;23.310;2023-04-19T05:49:41;94605.25;;;9.77;100.00
16451;BME280;12243;42.708;23.310;2023-04-19T05:52:34;94597.72;;;9.93;100.00
16451;BME280;12243;42.708;23.310;2023-04-19T05:55:03;94608.72;;;10.07;100.00
16451;BME280;12243;42.708;23.310;2023-04-19T05:57:32;94609.53;;;10.17;100.00
16451;BME280;12243;42.708;23.310;2023-04-19T05:59:59;94599.56;;;10.32;100.00
16451;BME280;12243;42.708;23.310;2023-04-19T06:02:39;94597.81;;;10.32;100.00
16451;BME280;12243;42.708;23.310;2023-04-19T06:05:10;94609.34;;;10.39;100.00
16451;BME280;12243;42.708;23.310;2023-04-19T06:07:37;94606.84;;;10.47;100.00
16451;BME280;12243;42.708;23.310;2023-04-19T06:10:05;94602.47;;;10.58;100.00
16451;BME280;12243;42.708;23.310;2023-04-19T06:12:32;94609.84;;;10.62;98.90
16451;BME280;12243;42.708;23.310;2023-04-19T06:14:59;94609.59;;;10.65;99.29
16451;BME280;12243;42.708;23.310;2023-04-19T06:17:27;94608.88;;;10.73;100.00
16451;BME280;12243;42.708;23.310;2023-04-19T06:19:54;94605.81;;;11.07;98.93
16451;BME280;12243;42.708;23.310;2023-04-19T06:22:22;94609.59;;;11.22;95.53
16451;BME280;12243;42.708;23.310;2023-04-19T06:24:49;94608.66;;;11.23;96.15
16451;BME280;12243;42.708;23.310;2023-04-19T06:27:16;94608.84;;;11.39;95.86
16451;BME280;12243;42.708;23.310;2023-04-19T06:29:43;94612.66;;;11.55;95.92
16451;BME280;12243;42.708;23.310;2023-04-19T06:32:10;94604.53;;;11.85;93.95
16451;BME280;12243;42.708;23.310;2023-04-19T06:34:37;94605.50;;;12.12;92.84
16451;BME280;12243;42.708;23.310;2023-04-19T06:37:03;94610.81;;;12.38;90.01
16451;BME280;12243;42.708;23.310;2023-04-19T06:39:32;94615.06;;;12.21;89.55
16451;BME280;12243;42.708;23.310;2023-04-19T06:41:59;94611.25;;;12.15;90.57
16451;BME280;12243;42.708;23.310;2023-04-19T06:44:27;94612.75;;;12.36;89.85
16451;BME280;12243;42.708;23.310;2023-04-19T06:46:54;94616.41;;;12.43;89.32
16451;BME280;12243;42.708;23.310;2023-04-19T06:49:21;94616.84;;;12.38;89.34
16451;BME280;12243;42.708;23.310;2023-04-19T06:51:48;94617.56;;;12.13;89.31
16451;BME280;12243;42.708;23.310;2023-04-19T06:54:15;94615.22;;;11.92;90.75
16451;BME280;12243;42.708;23.310;2023-04-19T06:56:45;94619.63;;;11.82;91.52
16451;BME280;12243;42.708;23.310;2023-04-19T06:59:12;94622.13;;;11.83;92.06
16451;BME280;12243;42.708;23.310;2023-04-19T07:01:41;94625.16;;;11.79;91.20
16451;BME280;12243;42.708;23.310;2023-04-19T07:04:08;94626.28;;;11.76;91.75
16451;BME280;12243;42.708;23.310;2023-04-19T07:06:35;94627.63;;;11.80;92.55
16451;BME280;12243;42.708;23.310;2023-04-19T07:09:03;94621.31;;;11.83;90.99
16451;BME280;12243;42.708;23.310;2023-04-19T07:11:31;94625.97;;;11.89;92.06
16451;BME280;12243;42.708;23.310;2023-04-19T07:13:59;94619.63;;;11.91;90.84
16451;BME280;12243;42.708;23.310;2023-04-19T07:16:26;94622.97;;;11.74;91.67
16451;BME280;12243;42.708;23.310;2023-04-19T07:18:53;94625.47;;;11.76;91.91
16451;BME280;12243;42.708;23.310;2023-04-19T07:21:20;94622.97;;;11.74;91.44
16451;BME280;12243;42.708;23.310;2023-04-19T07:23:49;94624.63;;;11.75;92.29
16451;BME280;12243;42.708;23.310;2023-04-19T07:26:16;94631.47;;;11.86;91.47
16451;BME280;12243;42.708;23.310;2023-04-19T07:28:43;94632.00;;;11.89;91.20
16451;BME280;12243;42.708;23.310;2023-04-19T07:31:15;94633.34;;;11.94;91.42
16451;BME280;12243;42.708;23.310;2023-04-19T07:33:42;94632.47;;;12.03;91.39
16451;BME280;12243;42.708;23.310;2023-04-19T07:36:09;94626.56;;;12.28;91.25
16451;BME280;12243;42.708;23.310;2023-04-19T07:38:36;94627.13;;;12.58;88.68
16451;BME280;12243;42.708;23.310;2023-04-19T07:41:03;94623.03;;;12.73;87.24
16451;BME280;12243;42.708;23.310;2023-04-19T07:43:30;94627.00;;;12.77;86.82
16451;BME280;12243;42.708;23.310;2023-04-19T07:45:57;94638.34;;;12.68;86.47
16451;BME280;12243;42.708;23.310;2023-04-19T07:48:27;94634.03;;;12.59;86.76
16451;BME280;12243;42.708;23.310;2023-04-19T07:50:54;94633.47;;;12.37;86.99
16451;BME280;12243;42.708;23.310;2023-04-19T07:53:20;94630.31;;;12.16;88.04
16451;BME280;12243;42.708;23.310;2023-04-19T07:55:47;94631.59;;;12.12;89.34
16451;BME280;12243;42.708;23.310;2023-04-19T07:58:14;94632.81;;;12.18;88.98
16451;BME280;12243;42.708;23.310;2023-04-19T08:00:41;94639.44;;;12.30;88.29
16451;BME280;12243;42.708;23.310;2023-04-19T08:03:08;94633.84;;;12.25;88.28
16451;BME280;12243;42.708;23.310;2023-04-19T08:05:36;94630.03;;;12.37;88.32
16451;BME280;12243;42.708;23.310;2023-04-19T08:08:04;94631.78;;;12.64;87.21
16451;BME280;12243;42.708;23.310;2023-04-19T08:10:31;94639.81;;;12.88;85.79
16451;BME280;12243;42.708;23.310;2023-04-19T08:12:59;94638.91;;;12.98;84.32
16451;BME280;12243;42.708;23.310;2023-04-19T08:15:26;94630.78;;;12.83;84.58
16451;BME280;12243;42.708;23.310;2023-04-19T08:17:53;94630.13;;;12.63;85.46
16451;BME280;12243;42.708;23.310;2023-04-19T08:20:20;94630.13;;;12.63;85.68
16451;BME280;12243;42.708;23.310;2023-04-19T08:22:49;94651.03;;;12.63;85.10
16451;BME280;12243;42.708;23.310;2023-04-19T08:25:16;94634.16;;;12.57;86.08
16451;BME280;12243;42.708;23.310;2023-04-19T08:27:43;94631.19;;;12.70;85.71
16451;BME280;12243;42.708;23.310;2023-04-19T08:30:10;94632.47;;;12.66;84.53
16451;BME280;12243;42.708;23.310;2023-04-19T08:32:37;94619.81;;;12.79;85.09
16451;BME280;12243;42.708;23.310;2023-04-19T08:35:05;94630.34;;;12.87;84.04
16451;BME280;12243;42.708;23.310;2023-04-19T08:37:32;94626.44;;;12.92;84.07
16451;BME280;12243;42.708;23.310;2023-04-19T08:40:01;94621.69;;;13.13;83.87
16451;BME280;12243;42.708;23.310;2023-04-19T08:42:30;94618.97;;;13.49;81.60
16451;BME280;12243;42.708;23.310;2023-04-19T08:44:59;94622.69;;;13.72;80.71
16451;BME280;12243;42.708;23.310;2023-04-19T08:47:27;94613.88;;;14.16;79.07
16451;BME280;12243;42.708;23.310;2023-04-19T08:49:55;94611.44;;;14.39;77.15
16451;BME280;12243;42.708;23.310;2023-04-19T08:52:26;94614.56;;;14.42;76.29
16451;BME280;12243;42.708;23.310;2023-04-19T08:54:53;94605.00;;;14.09;77.15
16451;BME280;12243;42.708;23.310;2023-04-19T08:57:21;94601.59;;;14.24;76.82
16451;BME280;12243;42.708;23.310;2023-04-19T08:59:48;94605.91;;;14.50;76.68
16451;BME280;12243;42.708;23.310;2023-04-19T09:02:20;94602.31;;;14.67;75.45
16451;BME280;12243;42.708;23.310;2023-04-19T09:04:47;94603.16;;;14.60;76.29
16451;BME280;12243;42.708;23.310;2023-04-19T09:07:22;94607.38;;;14.44;76.83
16451;BME280;12243;42.708;23.310;2023-04-19T09:10:03;94603.53;;;14.22;76.64
16451;BME280;12243;42.708;23.310;2023-04-19T09:12:33;94599.97;;;14.40;76.05
16451;BME280;12243;42.708;23.310;2023-04-19T09:15:01;94598.41;;;14.55;74.64
16451;BME280;12243;42.708;23.310;2023-04-19T09:17:29;94597.22;;;14.41;74.57
16451;BME280;12243;42.708;23.310;2023-04-19T09:19:57;94593.16;;;14.55;74.00
16451;BME280;12243;42.708;23.310;2023-04-19T09:22:25;94597.56;;;14.71;73.02
16451;BME280;12243;42.708;23.310;2023-04-19T09:24:52;94588.84;;;15.19;71.72
16451;BME280;12243;42.708;23.310;2023-04-19T09:27:25;94596.22;;;15.32;70.83
16451;BME280;12243;42.708;23.310;2023-04-19T09:29:54;94584.50;;;15.51;69.53
16451;BME280;12243;42.708;23.310;2023-04-19T09:32:21;94582.59;;;15.45;69.86
16451;BME280;12243;42.708;23.310;2023-04-19T09:34:53;94594.09;;;15.28;70.33
16451;BME280;12243;42.708;23.310;2023-04-19T09:37:20;94583.22;;;15.55;70.46
16451;BME280;12243;42.708;23.310;2023-04-19T09:39:48;94587.22;;;16.22;68.41
16451;BME280;12243;42.708;23.310;2023-04-19T09:42:14;94584.72;;;16.51;65.89
16451;BME280;12243;42.708;23.310;2023-04-19T09:44:55;94595.31;;;16.89;64.79
16451;BME280;12243;42.708;23.310;2023-04-19T09:47:24;94591.88;;;16.34;65.32
16451;BME280;12243;42.708;23.310;2023-04-19T09:50:05;94581.97;;;15.82;67.28
16451;BME280;12243;42.708;23.310;2023-04-19T09:52:33;94569.28;;;15.94;67.08
16451;BME280;12243;42.708;23.310;2023-04-19T09:55:01;94576.94;;;16.04;66.26
16451;BME280;12243;42.708;23.310;2023-04-19T09:57:29;94573.69;;;16.02;66.75
16451;BME280;12243;42.708;23.310;2023-04-19T09:59:59;94573.66;;;16.33;65.54
16451;BME280;12243;42.708;23.310;2023-04-19T10:02:29;94565.31;;;15.98;65.27
16451;BME280;12243;42.708;23.310;2023-04-19T10:04:58;94564.88;;;16.17;65.59
16451;BME280;12243;42.708;23.310;2023-04-19T10:07:25;94557.84;;;16.41;65.38
16451;BME280;12243;42.708;23.310;2023-04-19T10:09:54;94562.22;;;16.72;65.32
16451;BME280;12243;42.708;23.310;2023-04-19T10:12:23;94559.59;;;16.95;64.27
16451;BME280;12243;42.708;23.310;2023-04-19T10:14:52;94559.81;;;17.23;62.42
16451;BME280;12243;42.708;23.310;2023-04-19T10:17:22;94558.25;;;16.76;64.56
16451;BME280;12243;42.708;23.310;2023-04-19T10:19:52;94558.81;;;16.86;63.79
16451;BME280;12243;42.708;23.310;2023-04-19T10:22:21;94561.38;;;16.94;62.36
16451;BME280;12243;42.708;23.310;2023-04-19T10:25:15;94559.00;;;16.15;63.02
16451;BME280;12243;42.708;23.310;2023-04-19T10:27:43;94551.41;;;16.20;64.02
16451;BME280;12243;42.708;23.310;2023-04-19T10:30:18;94549.38;;;16.54;63.90
16451;BME280;12243;42.708;23.310;2023-04-19T10:32:51;94543.84;;;16.86;62.30
16451;BME280;12243;42.708;23.310;2023-04-19T10:35:20;94541.59;;;16.60;63.25
16451;BME280;12243;42.708;23.310;2023-04-19T10:38:07;94537.28;;;17.05;61.84
16451;BME280;12243;42.708;23.310;2023-04-19T10:40:58;94538.91;;;17.36;60.03
16451;BME280;12243;42.708;23.310;2023-04-19T10:43:29;94538.94;;;16.83;61.22
16451;BME280;12243;42.708;23.310;2023-04-19T10:46:00;94531.69;;;16.62;62.68
16451;BME280;12243;42.708;23.310;2023-04-19T10:48:37;94531.84;;;16.46;62.84
16451;BME280;12243;42.708;23.310;2023-04-19T10:51:11;94534.28;;;16.71;60.97
16451;BME280;12243;42.708;23.310;2023-04-19T10:54:01;94530.09;;;16.84;60.37
16451;BME280;12243;42.708;23.310;2023-04-19T10:56:59;94524.75;;;16.70;61.13
16451;BME280;12243;42.708;23.310;2023-04-19T10:59:29;94519.03;;;16.89;60.28
16451;BME280;12243;42.708;23.310;2023-04-19T11:01:57;94524.47;;;16.64;60.41
16451;BME280;12243;42.708;23.310;2023-04-19T11:07:41;94513.88;;;17.10;60.96
16451;BME280;12243;42.708;23.310;2023-04-19T11:10:08;94516.31;;;16.97;61.00
16451;BME280;12243;42.708;23.310;2023-04-19T11:12:36;94505.97;;;16.73;62.09
16451;BME280;12243;42.708;23.310;2023-04-19T11:15:06;94501.53;;;16.73;61.83
16451;BME280;12243;42.708;23.310;2023-04-19T11:17:35;94504.41;;;17.01;60.15
16451;BME280;12243;42.708;23.310;2023-04-19T11:20:05;94510.06;;;16.98;59.49
16451;BME280;12243;42.708;23.310;2023-04-19T11:22:35;94502.06;;;17.06;57.50
16451;BME280;12243;42.708;23.310;2023-04-19T11:25:09;94505.16;;;17.54;58.70
16451;BME280;12243;42.708;23.310;2023-04-19T11:27:37;94497.59;;;18.17;57.33
16451;BME280;12243;42.708;23.310;2023-04-19T11:30:05;94498.28;;;18.26;56.91
16451;BME280;12243;42.708;23.310;2023-04-19T11:32:32;94499.72;;;18.71;54.76
16451;BME280;12243;42.708;23.310;2023-04-19T11:35:04;94487.41;;;18.78;54.20
16451;BME280;12243;42.708;23.310;2023-04-19T11:37:32;94499.72;;;18.99;52.91
16451;BME280;12243;42.708;23.310;2023-04-19T11:39:59;94495.22;;;19.28;52.46
16451;BME280;12243;42.708;23.310;2023-04-19T11:42:27;94493.09;;;19.45;50.10
16451;BME280;12243;42.708;23.310;2023-04-19T11:44:54;94497.38;;;19.81;50.22
16451;BME280;12243;42.708;23.310;2023-04-19T11:47:22;94491.41;;;20.33;48.79
16451;BME280;12243;42.708;23.310;2023-04-19T11:49:50;94495.13;;;20.85;47.20
16451;BME280;12243;42.708;23.310;2023-04-19T11:52:20;94501.22;;;20.53;45.78
16451;BME280;12243;42.708;23.310;2023-04-19T11:54:48;94485.72;;;20.30;47.17
16451;BME280;12243;42.708;23.310;2023-04-19T11:57:25;94482.41;;;20.21;47.21
16451;BME280;12243;42.708;23.310;2023-04-19T12:00:08;94481.06;;;19.70;47.50
16451;BME280;12243;42.708;23.310;2023-04-19T12:02:41;94480.56;;;20.08;47.11
16451;BME280;12243;42.708;23.310;2023-04-19T12:05:13;94474.84;;;20.05;47.50
16451;BME280;12243;42.708;23.310;2023-04-19T12:07:59;94478.13;;;19.59;49.22
16451;BME280;12243;42.708;23.310;2023-04-19T12:10:26;94479.38;;;19.28;49.20
16451;BME280;12243;42.708;23.310;2023-04-19T12:12:53;94472.66;;;19.19;49.30
16451;BME280;12243;42.708;23.310;2023-04-19T12:15:21;94462.91;;;19.61;48.47
16451;BME280;12243;42.708;23.310;2023-04-19T12:17:56;94471.94;;;19.80;47.51
16451;BME280;12243;42.708;23.310;2023-04-19T12:20:43;94469.72;;;19.00;49.50
16451;BME280;12243;42.708;23.310;2023-04-19T12:23:10;94463.63;;;19.07;49.47
16451;BME280;12243;42.708;23.310;2023-04-19T12:25:39;94456.53;;;18.79;50.85
16451;BME280;12243;42.708;23.310;2023-04-19T12:28:06;94460.00;;;18.51;52.82
16451;BME280;12243;42.708;23.310;2023-04-19T12:30:35;94459.09;;;18.44;54.49
16451;BME280;12243;42.708;23.310;2023-04-19T12:33:03;94468.75;;;18.37;54.81
16451;BME280;12243;42.708;23.310;2023-04-19T12:35:30;94471.16;;;18.11;55.50
16451;BME280;12243;42.708;23.310;2023-04-19T12:37:59;94468.03;;;18.00;54.83
16451;BME280;12243;42.708;23.310;2023-04-19T12:40:28;94463.19;;;17.53;56.97
16451;BME280;12243;42.708;23.310;2023-04-19T12:42:55;94458.28;;;18.01;56.29
16451;BME280;12243;42.708;23.310;2023-04-19T12:45:23;94454.78;;;18.37;55.11
16451;BME280;12243;42.708;23.310;2023-04-19T12:47:52;94459.88;;;18.88;53.76
16451;BME280;12243;42.708;23.310;2023-04-19T12:50:18;94448.72;;;18.92;53.46
16451;BME280;12243;42.708;23.310;2023-04-19T12:52:45;94455.19;;;19.18;52.50
16451;BME280;12243;42.708;23.310;2023-04-19T12:55:12;94451.38;;;18.92;53.18
16451;BME280;12243;42.708;23.310;2023-04-19T12:57:41;94481.34;;;18.14;57.03
16451;BME280;12243;42.708;23.310;2023-04-19T13:00:08;94486.56;;;16.97;60.84
16451;BME280;12243;42.708;23.310;2023-04-19T13:02:37;94495.81;;;16.70;61.20